• Join FlightAware (Why Join?)
  • Login
  • US Flag 
12:29AM EST


 

Airport Tracker/Info


-or-


 

Live Flight TrackerFlight Track Log ✈ SWA1707 ✈ 25-Apr-2013 ✈ KBOS - KBNA

Flight Track Log - Related Links

Times and Time Zones

All times are in EDT time to prevent confusion due to time zone crossing. See the SWA1707 flight status page for this flight to view local times or setup timezone preferences in your user account.

Time Position Orientation Groundspeed Altitude Reporting Facility
EDT Latitude Longitude Course Direction KTS MPH feet Rate Location/Type
02:53PM 42.3833 -71.0167 240° Southwest 179 206 600  Level KA90
02:55PM 42.4053 -71.1242 285° West 223 257 4,700 2,880 Climbing Boston Center
02:56PM 42.3772 -71.2175 248° West 222 255 8,200 3,180 Climbing Boston Center
02:57PM 42.3550 -71.2994 250° West 247 284 11,100 2,160 Climbing Boston Center
02:58PM 42.3394 -71.4178 260° West 282 325 12,600 1,740 Climbing Boston Center
02:59PM 42.2047 -70.8836 240° Southwest  Level FlightAware Approximate
02:59PM 42.3300 -71.5331 264° West 309 356 14,600  Level Boston Center
03:00PM 42.3100 -71.6483 257° West 324 373 18,400 2,760 Climbing Boston Center
03:01PM 42.2942 -71.7608 259° West 324 373 20,200 1,740 Climbing Boston Center
03:02PM 42.2781 -71.8817 260° West 319 367 21,900 1,500 Climbing Boston Center
03:03PM 42.2600 -72.0053 259° West 324 373 23,300 1,200 Climbing Boston Center
03:04PM 42.2417 -72.1400 260° West 348 400 24,300 1,200 Climbing Boston Center
03:05PM 42.2231 -72.2803 260° West 369 425 25,800 1,560 Climbing Boston Center
03:06PM 42.2044 -72.4150 259° West 374 430 27,500 1,740 Climbing Boston Center
03:07PM 42.1856 -72.5522 260° West 374 430 29,300 1,800 Climbing Boston Center
03:08PM 42.1647 -72.6867 258° West 374 430 31,100 1,560 Climbing Boston Center
03:09PM 42.1186 -72.7956 240° Southwest 347 399 32,500 1,320 Climbing Boston Center
03:10PM 42.0578 -72.8958 231° Southwest 335 386 33,800 720 Climbing Boston Center
03:11PM 41.9947 -72.9903 228° Southwest 350 403 34,000 60 Climbing Boston Center
03:12PM 41.9381 -73.0847 231° Southwest 357 411 34,000  Level Boston Center
03:13PM 41.8750 -73.1817 229° Southwest 351 404 34,000  Level Boston Center
03:14PM 41.8139 -73.2786 230° Southwest 351 404 34,000  Level Boston Center
03:15PM 41.7506 -73.3750 229° Southwest 351 404 34,000  Level Boston Center
03:17PM 41.6003 -73.6092 229° Southwest 341 392 34,000  Level New York Center
03:18PM 41.5394 -73.7064 230° Southwest 347 399 34,000  Level New York Center
03:19PM 41.4789 -73.7978 229° Southwest 347 399 34,000  Level New York Center
03:20PM 41.4161 -73.8944 229° Southwest 347 399 34,000  Level New York Center
03:21PM 41.3553 -73.9883 229° Southwest 347 399 34,000  Level New York Center
03:22PM 41.2922 -74.0819 228° Southwest 347 399 34,000  Level New York Center
03:23PM 41.2378 -74.1647 229° Southwest 347 399 34,000  Level New York Center
03:24PM 41.1747 -74.2581 228° Southwest 347 399 34,000  Level New York Center
03:25PM 41.1117 -74.3483 227° Southwest 347 399 34,000  Level New York Center
03:26PM 41.0503 -74.4469 230° Southwest 347 399 34,000  Level New York Center
03:27PM 40.9892 -74.5342 227° Southwest 347 399 34,000  Level New York Center
03:28PM 40.9278 -74.6297 230° Southwest 347 399 34,000  Level New York Center
03:29PM 40.8644 -74.7194 227° Southwest 347 399 34,000  Level New York Center
03:30PM 40.8028 -74.8172 230° Southwest 347 399 34,000  Level New York Center
03:31PM 40.7533 -74.9186 237° Southwest 347 399 34,000  Level New York Center
03:32PM 40.7078 -75.0253 241° Southwest 347 399 34,000  Level New York Center
03:33PM 40.6581 -75.1317 238° Southwest 341 392 34,000  Level New York Center
03:34PM 40.6081 -75.2458 240° Southwest 346 398 34,000  Level New York Center
03:35PM 40.5603 -75.3494 239° Southwest 346 398 34,000  Level New York Center
03:36PM 40.5122 -75.4581 240° Southwest 346 398 34,000  Level New York Center
03:37PM 40.4619 -75.5667 239° Southwest 346 398 34,000  Level New York Center
03:38PM 40.4119 -75.6722 238° Southwest 346 398 34,000  Level New York Center
03:39PM 40.3614 -75.7803 238° Southwest 346 398 34,000  Level New York Center
03:40PM 40.3131 -75.8883 240° Southwest 346 398 34,000  Level New York Center
03:41PM 40.2536 -76.0064 237° Southwest 352 405 34,000  Level New York Center
03:42PM 40.2031 -76.1114 238° Southwest 352 405 34,000  Level New York Center
03:43PM 40.1633 -76.2086 242° Southwest 352 405 34,000  Level New York Center
03:45PM 40.0503 -76.4453 238° Southwest 343 395 34,000  Level Washington Center
03:46PM 39.9953 -76.5636 239° Southwest 348 400 34,000  Level Washington Center
03:47PM 39.9442 -76.6711 238° Southwest 353 406 34,000  Level Washington Center
03:48PM 39.8956 -76.7678 237° Southwest 353 406 34,000  Level Washington Center
03:49PM 39.8464 -76.8778 240° Southwest 353 406 34,000  Level Washington Center
03:50PM 39.7953 -76.9850 238° Southwest 353 406 34,000  Level Washington Center
03:51PM 39.7439 -77.0947 239° Southwest 358 412 34,000  Level Washington Center
03:52PM 39.6925 -77.2042 239° Southwest 358 412 34,000  Level Washington Center
03:53PM 39.6408 -77.3133 238° Southwest 358 412 34,000  Level Washington Center
03:54PM 39.5894 -77.4228 239° Southwest 358 412 34,000  Level Washington Center
03:55PM 39.5356 -77.5342 238° Southwest 358 412 34,000  Level Washington Center
03:56PM 39.4836 -77.6431 238° Southwest 358 412 34,000  Level Washington Center
03:57PM 39.4317 -77.7544 239° Southwest 358 412 34,000  Level Washington Center
03:58PM 39.3731 -77.8789 239° Southwest 363 418 34,000  Level Washington Center
03:59PM 39.3272 -77.9928 243° Southwest 363 418 34,000  Level Washington Center
04:00PM 39.2831 -78.1067 243° Southwest 363 418 34,000  Level Washington Center
04:01PM 39.2389 -78.2231 244° Southwest 363 418 34,000  Level Washington Center
04:02PM 39.1928 -78.3339 242° Southwest 363 418 34,000  Level Washington Center
04:03PM 39.1464 -78.4500 243° Southwest 363 418 34,000  Level Washington Center
04:04PM 39.0997 -78.5658 243° Southwest 363 418 34,000  Level Washington Center
04:06PM 39.0301 -78.7149 239° Southwest  Level FlightAware Approximate
04:06PM 39.0061 -78.7972 239° Southwest 363 418 34,000  Level Washington Center
04:07PM 38.9594 -78.9100 242° Southwest 363 418 34,000  Level Washington Center
04:08PM 38.9122 -79.0253 242° Southwest 363 418 34,000  Level Washington Center
04:09PM 38.8694 -79.1431 245° Southwest 363 418 34,000  Level Washington Center
04:10PM 38.8467 -79.2728 257° West 368 423 34,000  Level Washington Center
04:11PM 38.8261 -79.3969 258° West 368 423 34,000  Level Washington Center
04:12PM 38.8011 -79.5233 256° West 368 423 34,000  Level Washington Center
04:13PM 38.7781 -79.6528 257° West 373 429 34,000  Level Washington Center
04:14PM 38.7508 -79.7789 255° West 373 429 34,000  Level Washington Center
04:15PM 38.7297 -79.9031 258° West 368 423 34,000  Level Washington Center
04:16PM 38.7069 -80.0133 255° West 368 423 34,000  Level Washington Center
04:18PM 38.6647 -80.2161 255° West 360 414 34,000  Level Indianapolis Center
04:19PM 38.6400 -80.3406 256° West 361 415 34,000  Level Indianapolis Center
04:20PM 38.6175 -80.4631 257° West 355 409 34,000  Level Indianapolis Center
04:21PM 38.5883 -80.6119 256° West 358 412 34,000  Level Indianapolis Center
04:22PM 38.5631 -80.7344 255° West 355 409 34,000  Level Indianapolis Center
04:23PM 38.5378 -80.8586 255° West 359 413 34,000  Level Indianapolis Center
04:24PM 38.5128 -80.9819 256° West 359 413 34,000  Level Indianapolis Center
04:25PM 38.4872 -81.1050 255° West 357 411 34,000  Level Indianapolis Center
04:26PM 38.4619 -81.2294 255° West 359 413 34,000  Level Indianapolis Center
04:27PM 38.4369 -81.3533 256° West 357 411 34,000  Level Indianapolis Center
04:28PM 38.4111 -81.4772 255° West 357 411 34,000  Level Indianapolis Center
04:29PM 38.3853 -81.6011 255° West 357 411 34,000  Level Indianapolis Center
04:30PM 38.3547 -81.7486 255° West 356 410 34,000  Level Indianapolis Center
04:31PM 38.3225 -81.8694 251° West 359 413 34,000  Level Indianapolis Center
04:32PM 38.2889 -81.9917 251° West 363 418 34,000  Level Indianapolis Center
04:33PM 38.2550 -82.1106 250° West 358 412 34,000  Level Indianapolis Center
04:34PM 38.2208 -82.2306 250° West 360 414 34,000  Level Indianapolis Center
04:35PM 38.1861 -82.3514 250° West 362 417 34,000  Level Indianapolis Center
04:36PM 38.1519 -82.4728 250° West 364 419 34,000  Level Indianapolis Center
04:37PM 38.1147 -82.6064 251° West 364 419 34,000  Level Indianapolis Center
04:39PM 38.0736 -82.7439 249° West 360 414 34,000  Level Indianapolis Center
04:40PM 38.0381 -82.8656 250° West 365 420 34,000  Level Indianapolis Center
04:41PM 38.0039 -82.9856 250° West 363 418 34,000 -60 Level Indianapolis Center
04:42PM 37.9686 -83.1047 249° West 362 417 33,900 -600 Descending Indianapolis Center
04:43PM 37.9119 -83.2136 237° Southwest 369 425 32,800 -960 Descending Indianapolis Center
04:44PM 37.8450 -83.3389 236° Southwest 370 426 32,000 -420 Descending Indianapolis Center
04:45PM 37.7883 -83.4464 236° Southwest 367 422 32,000  Level Indianapolis Center
04:46PM 37.7300 -83.5536 235° Southwest 370 426 32,000  Level Indianapolis Center
04:47PM 37.6722 -83.6611 236° Southwest 369 425 32,000  Level Indianapolis Center
04:48PM 37.6150 -83.7694 236° Southwest 371 427 32,000  Level Indianapolis Center
04:49PM 37.5475 -83.8936 236° Southwest 368 423 32,000  Level Indianapolis Center
04:51PM 37.4317 -84.1081 236° Southwest 368 423 32,000  Level Indianapolis Center
04:52PM 37.3736 -84.2147 236° Southwest 368 423 32,000  Level Indianapolis Center
04:53PM 37.3150 -84.3208 235° Southwest 369 425 32,000  Level Indianapolis Center
04:54PM 37.2467 -84.4450 235° Southwest 371 427 32,000  Level Indianapolis Center
04:55PM 37.1892 -84.5508 236° Southwest 368 423 32,000  Level Indianapolis Center
04:56PM 37.1286 -84.6581 235° Southwest 372 428 32,000  Level Indianapolis Center
04:57PM 37.0692 -84.7661 235° Southwest 376 433 32,000  Level Indianapolis Center
04:58PM 37.0111 -84.8714 235° Southwest 373 429 32,000 -240 Level Indianapolis Center
04:59PM 36.9525 -84.9761 235° Southwest 369 425 31,600 -1,920 Descending Indianapolis Center
05:01PM 36.8762 -85.1083 237° Southwest  Level FlightAware Approximate
05:01PM 36.8550 -85.1789 237° Southwest 375 432 26,900  Level Memphis Center
05:01PM 36.8361 -85.2183 239° Southwest 368 423 25,900 -2,460 Descending Indianapolis Center
05:02PM 36.7842 -85.3294 240° Southwest 372 428 23,400 -1,920 Descending Indianapolis Center
05:03PM 36.7317 -85.4408 240° Southwest 374 430 22,000 -900 Descending Indianapolis Center
05:04PM 36.6997 -85.5100 240° Southwest 375 432 22,000  Level Memphis Center
05:05PM 36.6472 -85.6139 238° Southwest 368 423 22,000 -240 Level Memphis Center
05:06PM 36.5953 -85.7231 239° Southwest 363 418 21,600 -1,380 Descending Memphis Center
05:07PM 36.5472 -85.8342 242° Southwest 368 423 19,300 -5,820 Descending Memphis Center
05:08PM 36.5008 -85.9322 240° Southwest 356 410 10,000 -2,100 Descending Memphis Center
05:09PM 36.4542 -86.0278 239° Southwest 339 390 15,200 1,560 Climbing Memphis Center
05:10PM 36.4094 -86.1231 240° Southwest 328 377 13,200 -2,040 Descending Memphis Center
05:11PM 36.3644 -86.2128 238° Southwest 320 368 11,200 -1,560 Descending Memphis Center
05:12PM 36.3275 -86.2919 240° Southwest 310 357 10,100 -1,260 Descending Memphis Center
05:13PM 36.2883 -86.3714 239° Southwest 287 330 8,700 -1,680 Descending Memphis Center
05:14PM 36.2511 -86.4478 239° Southwest 276 318 6,800 -1,380 Descending Memphis Center
05:15PM 36.2078 -86.5219 234° Southwest 276 318 6,000 -720 Descending Memphis Center
05:16PM 36.1397 -86.5481 197° South 254 292 5,400 -900 Descending Memphis Center
05:17PM 36.0675 -86.5747 197° South 254 292 4,300 -1,380 Descending Memphis Center
05:18PM 36.0247 -86.6125 216° Southwest 219 252 2,700 -1,080 Descending Memphis Center
05:19PM 36.0553 -86.6572 310° West 132 152 2,200 -840 Descending Memphis Center
05:20PM 36.0936 -86.6786 336° Northwest 137 158 1,100 -720 Descending Memphis Center
05:21PM 36.1292 -86.6875 349° North 137 158 800 -300 Descending Memphis Center
05:23PM 36.1245 -86.6782 90° East  Level Estimated
05:30PM 36.1245 -86.6782 90° East  Level Estimated
05:31PM 36.1245 -86.6782 90° East  Level Estimated
05:32PM 36.1245 -86.6782 90° East  Level Estimated
05:33PM 36.1245 -86.6782 90° East  Level Estimated
05:34PM 36.1245 -86.6782 90° East  Level Estimated
05:35PM 36.1245 -86.6782 90° East  Level Estimated